sensor_id;sensor_type;location;lat;lon;timestamp;pressure;altitude;pressure_sealevel;temperature;humidity
71384;BME280;67558;52.166;5.004;2023-07-24T00:01:48;100478.19;;;22.54;59.69
71384;BME280;67558;52.166;5.004;2023-07-24T00:04:14;100483.66;;;22.54;59.79
71384;BME280;67558;52.166;5.004;2023-07-24T00:06:39;100480.50;;;22.52;59.52
71384;BME280;67558;52.166;5.004;2023-07-24T00:09:04;100478.91;;;22.51;59.56
71384;BME280;67558;52.166;5.004;2023-07-24T00:11:30;100478.56;;;22.52;59.63
71384;BME280;67558;52.166;5.004;2023-07-24T00:13:55;100471.00;;;22.45;59.79
71384;BME280;67558;52.166;5.004;2023-07-24T00:16:20;100478.03;;;22.46;59.52
71384;BME280;67558;52.166;5.004;2023-07-24T00:18:46;100479.63;;;22.47;59.30
71384;BME280;67558;52.166;5.004;2023-07-24T00:21:11;100476.53;;;22.49;59.48
71384;BME280;67558;52.166;5.004;2023-07-24T00:23:38;100476.53;;;22.49;59.79
71384;BME280;67558;52.166;5.004;2023-07-24T00:26:03;100461.69;;;22.46;59.57
71384;BME280;67558;52.166;5.004;2023-07-24T00:28:29;100463.25;;;22.47;59.58
71384;BME280;67558;52.166;5.004;2023-07-24T00:30:54;100447.63;;;22.44;59.48
71384;BME280;67558;52.166;5.004;2023-07-24T00:33:21;100460.81;;;22.42;60.02
71384;BME280;67558;52.166;5.004;2023-07-24T00:35:46;100455.66;;;22.37;59.76
71384;BME280;67558;52.166;5.004;2023-07-24T00:38:12;100447.81;;;22.36;59.71
71384;BME280;67558;52.166;5.004;2023-07-24T00:40:37;100449.31;;;22.33;60.11
71384;BME280;67558;52.166;5.004;2023-07-24T00:43:03;100437.63;;;22.33;59.88
71384;BME280;67558;52.166;5.004;2023-07-24T00:45:28;100429.09;;;22.34;60.23
71384;BME280;67558;52.166;5.004;2023-07-24T00:47:54;100436.47;;;22.34;60.16
71384;BME280;67558;52.166;5.004;2023-07-24T00:50:19;100430.25;;;22.33;60.34
71384;BME280;67558;52.166;5.004;2023-07-24T00:52:45;100424.38;;;22.31;60.41
71384;BME280;67558;52.166;5.004;2023-07-24T00:55:13;100419.16;;;22.26;60.15
71384;BME280;67558;52.166;5.004;2023-07-24T00:57:39;100431.31;;;22.28;60.05
71384;BME280;67558;52.166;5.004;2023-07-24T01:00:06;100413.66;;;22.22;60.09
71384;BME280;67558;52.166;5.004;2023-07-24T01:02:32;100431.66;;;22.27;60.53
71384;BME280;67558;52.166;5.004;2023-07-24T01:04:58;100429.63;;;22.24;60.07
71384;BME280;67558;52.166;5.004;2023-07-24T01:07:23;100426.91;;;22.24;60.47
71384;BME280;67558;52.166;5.004;2023-07-24T01:09:49;100424.44;;;22.19;60.68
71384;BME280;67558;52.166;5.004;2023-07-24T01:12:36;100414.25;;;22.16;60.69
71384;BME280;67558;52.166;5.004;2023-07-24T01:15:21;100431.44;;;22.20;60.51
71384;BME280;67558;52.166;5.004;2023-07-24T01:17:51;100427.59;;;22.21;60.43
71384;BME280;67558;52.166;5.004;2023-07-24T01:20:19;100429.16;;;22.22;60.55
71384;BME280;67558;52.166;5.004;2023-07-24T01:25:35;100428.38;;;22.21;60.71
71384;BME280;67558;52.166;5.004;2023-07-24T01:28:01;100419.31;;;22.17;60.76
71384;BME280;67558;52.166;5.004;2023-07-24T01:30:26;100416.97;;;22.16;60.83
71384;BME280;67558;52.166;5.004;2023-07-24T01:32:52;100424.09;;;22.20;60.82
71384;BME280;67558;52.166;5.004;2023-07-24T01:35:17;100411.78;;;22.11;60.34
71384;BME280;67558;52.166;5.004;2023-07-24T01:37:43;100429.88;;;22.19;60.36
71384;BME280;67558;52.166;5.004;2023-07-24T01:40:10;100407.22;;;22.15;60.42
71384;BME280;67558;52.166;5.004;2023-07-24T01:42:36;100395.09;;;22.12;60.94
71384;BME280;67558;52.166;5.004;2023-07-24T01:45:03;100401.75;;;22.15;60.40
71384;BME280;67558;52.166;5.004;2023-07-24T01:47:29;100408.81;;;22.16;60.84
71384;BME280;67558;52.166;5.004;2023-07-24T01:49:55;100399.03;;;22.15;60.84
71384;BME280;67558;52.166;5.004;2023-07-24T01:52:20;100393.94;;;22.13;60.65
71384;BME280;67558;52.166;5.004;2023-07-24T01:54:46;100387.72;;;22.13;61.09
71384;BME280;67558;52.166;5.004;2023-07-24T01:57:11;100392.72;;;22.11;60.89
71384;BME280;67558;52.166;5.004;2023-07-24T01:59:37;100400.88;;;22.11;60.87
71384;BME280;67558;52.166;5.004;2023-07-24T02:02:02;100380.25;;;22.09;61.23
71384;BME280;67558;52.166;5.004;2023-07-24T02:04:27;100387.25;;;22.11;61.23
71384;BME280;67558;52.166;5.004;2023-07-24T02:06:53;100388.41;;;22.09;60.90
71384;BME280;67558;52.166;5.004;2023-07-24T02:09:18;100383.66;;;22.06;61.02
71384;BME280;67558;52.166;5.004;2023-07-24T02:11:44;100385.59;;;22.06;61.50
71384;BME280;67558;52.166;5.004;2023-07-24T02:14:11;100376.66;;;22.05;61.09
71384;BME280;67558;52.166;5.004;2023-07-24T02:16:36;100367.16;;;21.99;61.18
71384;BME280;67558;52.166;5.004;2023-07-24T02:19:02;100373.16;;;22.05;61.24
71384;BME280;67558;52.166;5.004;2023-07-24T02:21:27;100372.34;;;22.04;61.04
71384;BME280;67558;52.166;5.004;2023-07-24T02:23:52;100366.09;;;22.04;61.35
71384;BME280;67558;52.166;5.004;2023-07-24T02:26:18;100359.09;;;22.03;61.13
71384;BME280;67558;52.166;5.004;2023-07-24T02:28:43;100352.34;;;21.97;61.41
71384;BME280;67558;52.166;5.004;2023-07-24T02:31:08;100355.56;;;22.02;61.59
71384;BME280;67558;52.166;5.004;2023-07-24T02:33:34;100349.75;;;22.04;61.14
71384;BME280;67558;52.166;5.004;2023-07-24T02:36:00;100336.94;;;22.04;61.34
71384;BME280;67558;52.166;5.004;2023-07-24T02:38:26;100332.50;;;21.96;61.30
71384;BME280;67558;52.166;5.004;2023-07-24T02:40:51;100341.59;;;22.04;61.23
71384;BME280;67558;52.166;5.004;2023-07-24T02:43:17;100348.63;;;22.05;61.15
71384;BME280;67558;52.166;5.004;2023-07-24T02:45:42;100340.47;;;22.05;61.45
71384;BME280;67558;52.166;5.004;2023-07-24T02:48:07;100349.47;;;22.09;61.17
71384;BME280;67558;52.166;5.004;2023-07-24T02:50:33;100344.75;;;22.06;61.48
71384;BME280;67558;52.166;5.004;2023-07-24T02:52:59;100339.22;;;22.02;61.98
71384;BME280;67558;52.166;5.004;2023-07-24T02:55:24;100349.41;;;22.05;61.52
71384;BME280;67558;52.166;5.004;2023-07-24T02:57:50;100345.91;;;22.05;62.15
71384;BME280;67558;52.166;5.004;2023-07-24T03:00:16;100350.97;;;22.06;61.62
71384;BME280;67558;52.166;5.004;2023-07-24T03:02:41;100345.81;;;22.01;62.12
71384;BME280;67558;52.166;5.004;2023-07-24T03:05:07;100341.88;;;21.99;62.42
71384;BME280;67558;52.166;5.004;2023-07-24T03:07:32;100345.72;;;21.98;62.38
71384;BME280;67558;52.166;5.004;2023-07-24T03:09:58;100345.72;;;21.98;62.21
71384;BME280;67558;52.166;5.004;2023-07-24T03:12:23;100334.06;;;21.97;61.99
71384;BME280;67558;52.166;5.004;2023-07-24T03:14:49;100339.06;;;21.95;62.32
71384;BME280;67558;52.166;5.004;2023-07-24T03:17:14;100346.88;;;21.97;62.15
71384;BME280;67558;52.166;5.004;2023-07-24T03:19:40;100336.69;;;21.94;62.20
71384;BME280;67558;52.166;5.004;2023-07-24T03:22:06;100332.75;;;21.91;62.19
71384;BME280;67558;52.166;5.004;2023-07-24T03:24:31;100316.06;;;21.93;61.96
71384;BME280;67558;52.166;5.004;2023-07-24T03:26:56;100327.38;;;21.95;62.31
71384;BME280;67558;52.166;5.004;2023-07-24T03:29:22;100330.47;;;21.93;62.44
71384;BME280;67558;52.166;5.004;2023-07-24T03:31:47;100335.81;;;21.89;62.32
71384;BME280;67558;52.166;5.004;2023-07-24T03:34:12;100336.97;;;21.88;62.01
71384;BME280;67558;52.166;5.004;2023-07-24T03:36:38;100322.63;;;21.92;61.73
71384;BME280;67558;52.166;5.004;2023-07-24T03:39:06;100310.38;;;21.82;62.10
71384;BME280;67558;52.166;5.004;2023-07-24T03:41:32;100325.28;;;21.88;61.69
71384;BME280;67558;52.166;5.004;2023-07-24T03:43:57;100327.19;;;21.87;62.09
71384;BME280;67558;52.166;5.004;2023-07-24T03:46:22;100329.53;;;21.85;61.88
71384;BME280;67558;52.166;5.004;2023-07-24T03:48:48;100328.25;;;21.83;62.20
71384;BME280;67558;52.166;5.004;2023-07-24T03:51:15;100332.59;;;21.84;61.99
71384;BME280;67558;52.166;5.004;2023-07-24T03:53:41;100327.13;;;21.84;62.12
71384;BME280;67558;52.166;5.004;2023-07-24T03:56:06;100319.22;;;21.79;61.53
71384;BME280;67558;52.166;5.004;2023-07-24T03:58:31;100322.38;;;21.81;61.91
71384;BME280;67558;52.166;5.004;2023-07-24T04:00:57;100323.53;;;21.80;61.76
71384;BME280;67558;52.166;5.004;2023-07-24T04:03:22;100322.38;;;21.81;61.67
71384;BME280;67558;52.166;5.004;2023-07-24T04:05:47;100324.66;;;21.79;61.84
71384;BME280;67558;52.166;5.004;2023-07-24T04:08:13;100314.50;;;21.76;61.96
71384;BME280;67558;52.166;5.004;2023-07-24T04:10:38;100315.22;;;21.73;62.39
71384;BME280;67558;52.166;5.004;2023-07-24T04:13:03;100316.69;;;21.70;62.54
71384;BME280;67558;52.166;5.004;2023-07-24T04:15:29;100318.19;;;21.67;62.21
71384;BME280;67558;52.166;5.004;2023-07-24T04:17:54;100320.91;;;21.67;62.26
71384;BME280;67558;52.166;5.004;2023-07-24T04:20:19;100326.78;;;21.70;62.50
71384;BME280;67558;52.166;5.004;2023-07-24T04:22:45;100321.34;;;21.70;62.51
71384;BME280;67558;52.166;5.004;2023-07-24T04:25:11;100326.44;;;21.71;62.56
71384;BME280;67558;52.166;5.004;2023-07-24T04:27:36;100329.06;;;21.67;62.61
71384;BME280;67558;52.166;5.004;2023-07-24T04:30:02;100323.19;;;21.65;62.43
71384;BME280;67558;52.166;5.004;2023-07-24T04:32:27;100317.25;;;21.60;62.81
71384;BME280;67558;52.166;5.004;2023-07-24T04:34:53;100331.34;;;21.65;62.46
71384;BME280;67558;52.166;5.004;2023-07-24T04:37:18;100320.31;;;21.58;62.98
71384;BME280;67558;52.166;5.004;2023-07-24T04:39:44;100334.50;;;21.67;62.61
71384;BME280;67558;52.166;5.004;2023-07-24T04:42:09;100329.06;;;21.67;62.83
71384;BME280;67558;52.166;5.004;2023-07-24T04:44:34;100334.84;;;21.66;62.22
71384;BME280;67558;52.166;5.004;2023-07-24T04:47:00;100322.84;;;21.67;62.75
71384;BME280;67558;52.166;5.004;2023-07-24T04:49:29;100326.34;;;21.67;62.71
71384;BME280;67558;52.166;5.004;2023-07-24T04:51:54;100326.34;;;21.67;62.68
71384;BME280;67558;52.166;5.004;2023-07-24T04:54:20;100321.78;;;21.72;62.79
71384;BME280;67558;52.166;5.004;2023-07-24T04:56:45;100321.34;;;21.70;62.93
71384;BME280;67558;52.166;5.004;2023-07-24T04:59:10;100321.34;;;21.70;62.81
71384;BME280;67558;52.166;5.004;2023-07-24T05:01:36;100327.94;;;21.68;62.47
71384;BME280;67558;52.166;5.004;2023-07-24T05:04:01;100322.50;;;21.68;62.81
71384;BME280;67558;52.166;5.004;2023-07-24T05:06:27;100329.84;;;21.68;62.38
71384;BME280;67558;52.166;5.004;2023-07-24T05:08:52;100333.81;;;21.71;62.42
71384;BME280;67558;52.166;5.004;2023-07-24T05:11:18;100312.41;;;21.69;62.80
71384;BME280;67558;52.166;5.004;2023-07-24T05:13:43;100318.63;;;21.70;62.56
71384;BME280;67558;52.166;5.004;2023-07-24T05:16:09;100327.22;;;21.72;62.35
71384;BME280;67558;52.166;5.004;2023-07-24T05:18:34;100332.41;;;21.77;62.65
71384;BME280;67558;52.166;5.004;2023-07-24T05:20:59;100322.38;;;21.81;62.25
71384;BME280;67558;52.166;5.004;2023-07-24T05:23:25;100326.69;;;21.82;62.61
71384;BME280;67558;52.166;5.004;2023-07-24T05:26:00;100327.19;;;21.87;62.29
71384;BME280;67558;52.166;5.004;2023-07-24T05:28:27;100321.84;;;21.91;62.35
71384;BME280;67558;52.166;5.004;2023-07-24T05:30:52;100330.97;;;21.99;62.04
71384;BME280;67558;52.166;5.004;2023-07-24T05:33:18;100333.78;;;22.02;62.29
71384;BME280;67558;52.166;5.004;2023-07-24T05:35:43;100334.66;;;22.06;61.61
71384;BME280;67558;52.166;5.004;2023-07-24T05:38:09;100335.50;;;22.11;62.01
71384;BME280;67558;52.166;5.004;2023-07-24T05:40:34;100328.22;;;22.15;61.93
71384;BME280;67558;52.166;5.004;2023-07-24T05:43:00;100331.03;;;22.18;61.90
71384;BME280;67558;52.166;5.004;2023-07-24T05:45:26;100331.66;;;22.27;61.70
71384;BME280;67558;52.166;5.004;2023-07-24T05:47:52;100337.63;;;22.33;61.50
71384;BME280;67558;52.166;5.004;2023-07-24T05:50:17;100322.78;;;22.31;61.41
71384;BME280;67558;52.166;5.004;2023-07-24T05:52:43;100327.22;;;22.39;60.79
71384;BME280;67558;52.166;5.004;2023-07-24T05:55:09;100337.03;;;22.43;60.99
71384;BME280;67558;52.166;5.004;2023-07-24T05:57:34;100337.47;;;22.45;60.81
71384;BME280;67558;52.166;5.004;2023-07-24T05:59:59;100330.16;;;22.49;60.41
71384;BME280;67558;52.166;5.004;2023-07-24T06:02:25;100327.00;;;22.47;60.34
71384;BME280;67558;52.166;5.004;2023-07-24T06:04:50;100340.91;;;22.42;60.24
71384;BME280;67558;52.166;5.004;2023-07-24T06:07:16;100346.38;;;22.42;60.44
71384;BME280;67558;52.166;5.004;2023-07-24T06:09:42;100340.84;;;22.39;60.46
71384;BME280;67558;52.166;5.004;2023-07-24T06:12:07;100346.28;;;22.39;60.13
71384;BME280;67558;52.166;5.004;2023-07-24T06:14:32;100341.56;;;22.36;60.21
71384;BME280;67558;52.166;5.004;2023-07-24T06:16:58;100338.06;;;22.35;59.89
71384;BME280;67558;52.166;5.004;2023-07-24T06:19:23;100339.25;;;22.38;60.04
71384;BME280;67558;52.166;5.004;2023-07-24T06:21:48;100348.56;;;22.37;59.83
71384;BME280;67558;52.166;5.004;2023-07-24T06:24:14;100350.16;;;22.38;59.53
71384;BME280;67558;52.166;5.004;2023-07-24T06:26:39;100349.81;;;22.39;59.84
71384;BME280;67558;52.166;5.004;2023-07-24T06:29:05;100350.94;;;22.38;59.46
71384;BME280;67558;52.166;5.004;2023-07-24T06:31:30;100341.22;;;22.37;59.81
71384;BME280;67558;52.166;5.004;2023-07-24T06:33:56;100359.00;;;22.51;59.16
71384;BME280;67558;52.166;5.004;2023-07-24T06:36:21;100344.81;;;22.61;59.03
71384;BME280;67558;52.166;5.004;2023-07-24T06:38:46;100333.69;;;22.69;58.95
71384;BME280;67558;52.166;5.004;2023-07-24T06:41:15;100345.38;;;22.89;58.68
71384;BME280;67558;52.166;5.004;2023-07-24T06:43:41;100348.66;;;22.99;58.24
71384;BME280;67558;52.166;5.004;2023-07-24T06:46:07;100340.16;;;23.00;57.78
71384;BME280;67558;52.166;5.004;2023-07-24T06:48:32;100350.91;;;23.13;57.61
71384;BME280;67558;52.166;5.004;2023-07-24T06:50:58;100329.34;;;23.04;57.60
71384;BME280;67558;52.166;5.004;2023-07-24T06:53:23;100352.25;;;23.22;57.24
71384;BME280;67558;52.166;5.004;2023-07-24T06:55:48;100360.56;;;23.29;57.21
71384;BME280;67558;52.166;5.004;2023-07-24T06:58:14;100359.25;;;23.43;56.92
71384;BME280;67558;52.166;5.004;2023-07-24T07:00:39;100354.66;;;23.47;56.49
71384;BME280;67558;52.166;5.004;2023-07-24T07:03:05;100345.72;;;23.50;56.54
71384;BME280;67558;52.166;5.004;2023-07-24T07:05:31;100351.25;;;23.54;56.47
71384;BME280;67558;52.166;5.004;2023-07-24T07:07:57;100361.44;;;23.57;56.16
71384;BME280;67558;52.166;5.004;2023-07-24T07:10:22;100348.56;;;23.57;56.05
71384;BME280;67558;52.166;5.004;2023-07-24T07:12:48;100349.47;;;23.65;55.92
71384;BME280;67558;52.166;5.004;2023-07-24T07:15:13;100355.88;;;23.73;55.68
71384;BME280;67558;52.166;5.004;2023-07-24T07:17:39;100345.06;;;23.80;55.79
71384;BME280;67558;52.166;5.004;2023-07-24T07:20:05;100349.06;;;23.86;55.65
71384;BME280;67558;52.166;5.004;2023-07-24T07:22:31;100346.03;;;23.91;55.54
71384;BME280;67558;52.166;5.004;2023-07-24T07:24:56;100344.50;;;23.94;54.89
71384;BME280;67558;52.166;5.004;2023-07-24T07:27:21;100354.72;;;24.00;54.79
71384;BME280;67558;52.166;5.004;2023-07-24T07:29:47;100349.28;;;24.00;54.62
71384;BME280;67558;52.166;5.004;2023-07-24T07:32:12;100341.47;;;23.99;54.50
71384;BME280;67558;52.166;5.004;2023-07-24T07:34:37;100341.50;;;24.02;54.21
71384;BME280;67558;52.166;5.004;2023-07-24T07:37:04;100338.66;;;23.95;54.60
71384;BME280;67558;52.166;5.004;2023-07-24T07:39:30;100335.94;;;23.95;54.44
71384;BME280;67558;52.166;5.004;2023-07-24T07:41:55;100335.09;;;23.91;53.84
71384;BME280;67558;52.166;5.004;2023-07-24T07:44:21;100328.09;;;23.94;54.19
71384;BME280;67558;52.166;5.004;2023-07-24T07:46:47;100330.53;;;23.99;54.48
71384;BME280;67558;52.166;5.004;2023-07-24T07:49:13;100317.31;;;24.01;54.08
71384;BME280;67558;52.166;5.004;2023-07-24T07:51:41;100325.66;;;24.11;54.04
71384;BME280;67558;52.166;5.004;2023-07-24T07:54:07;100320.69;;;24.21;53.84
71384;BME280;67558;52.166;5.004;2023-07-24T07:56:32;100328.63;;;24.29;53.68
71384;BME280;67558;52.166;5.004;2023-07-24T07:58:57;100320.50;;;24.37;53.32
71384;BME280;67558;52.166;5.004;2023-07-24T08:01:23;100323.38;;;24.47;53.58
71384;BME280;67558;52.166;5.004;2023-07-24T08:03:48;100327.84;;;24.59;53.58
71384;BME280;67558;52.166;5.004;2023-07-24T08:06:13;100315.81;;;24.64;53.17
71384;BME280;67558;52.166;5.004;2023-07-24T08:08:39;100318.25;;;24.72;53.01
71384;BME280;67558;52.166;5.004;2023-07-24T08:11:07;100310.50;;;24.78;52.98
71384;BME280;67558;52.166;5.004;2023-07-24T08:13:34;100322.28;;;24.86;53.08
71384;BME280;67558;52.166;5.004;2023-07-24T08:15:59;100330.91;;;24.88;53.11
71384;BME280;67558;52.166;5.004;2023-07-24T08:18:26;100326.69;;;24.94;52.80
71384;BME280;67558;52.166;5.004;2023-07-24T08:20:51;100327.06;;;24.92;52.94
71384;BME280;67558;52.166;5.004;2023-07-24T08:23:17;100327.06;;;24.92;53.00
71384;BME280;67558;52.166;5.004;2023-07-24T08:25:55;100331.31;;;24.90;52.69
71384;BME280;67558;52.166;5.004;2023-07-24T08:28:21;100342.31;;;24.93;52.73
71384;BME280;67558;52.166;5.004;2023-07-24T08:30:55;100314.38;;;24.77;52.41
71384;BME280;67558;52.166;5.004;2023-07-24T08:33:21;100319.50;;;24.82;52.86
71384;BME280;67558;52.166;5.004;2023-07-24T08:35:47;100315.63;;;24.83;52.91
71384;BME280;67558;52.166;5.004;2023-07-24T08:38:12;100318.78;;;24.85;53.34
71384;BME280;67558;52.166;5.004;2023-07-24T08:40:37;100327.06;;;24.92;53.06
71384;BME280;67558;52.166;5.004;2023-07-24T08:43:04;100332.63;;;25.00;52.75
71384;BME280;67558;52.166;5.004;2023-07-24T08:45:30;100335.84;;;25.09;52.48
71384;BME280;67558;52.166;5.004;2023-07-24T08:47:56;100326.13;;;25.15;52.33
71384;BME280;67558;52.166;5.004;2023-07-24T08:50:23;100328.53;;;25.20;52.39
71384;BME280;67558;52.166;5.004;2023-07-24T08:52:50;100325.84;;;25.24;51.83
71384;BME280;67558;52.166;5.004;2023-07-24T08:55:15;100324.66;;;25.21;51.46
71384;BME280;67558;52.166;5.004;2023-07-24T08:57:41;100328.47;;;25.17;51.46
71384;BME280;67558;52.166;5.004;2023-07-24T09:00:07;100316.69;;;25.09;51.32
71384;BME280;67558;52.166;5.004;2023-07-24T09:02:33;100325.56;;;24.99;51.17
71384;BME280;67558;52.166;5.004;2023-07-24T09:04:58;100318.03;;;24.88;51.17
71384;BME280;67558;52.166;5.004;2023-07-24T09:07:24;100310.09;;;24.80;51.43
71384;BME280;67558;52.166;5.004;2023-07-24T09:09:49;100311.22;;;24.75;51.58
71384;BME280;67558;52.166;5.004;2023-07-24T09:12:16;100319.03;;;24.73;51.23
71384;BME280;67558;52.166;5.004;2023-07-24T09:14:41;100308.75;;;24.63;51.34
71384;BME280;67558;52.166;5.004;2023-07-24T09:17:10;100315.88;;;24.71;51.22
71384;BME280;67558;52.166;5.004;2023-07-24T09:19:37;100301.78;;;24.69;51.10
71384;BME280;67558;52.166;5.004;2023-07-24T09:22:13;100308.00;;;24.66;51.54
71384;BME280;67558;52.166;5.004;2023-07-24T09:25:00;100311.47;;;24.63;51.29
71384;BME280;67558;52.166;5.004;2023-07-24T09:27:27;100318.06;;;24.58;51.38
71384;BME280;67558;52.166;5.004;2023-07-24T09:29:53;100291.69;;;24.43;51.63
71384;BME280;67558;52.166;5.004;2023-07-24T09:32:23;100288.13;;;24.39;51.51
71384;BME280;67558;52.166;5.004;2023-07-24T09:34:49;100301.91;;;24.46;51.59
71384;BME280;67558;52.166;5.004;2023-07-24T09:37:30;100292.44;;;24.40;51.59
71384;BME280;67558;52.166;5.004;2023-07-24T09:39:56;100296.72;;;24.37;51.74
71384;BME280;67558;52.166;5.004;2023-07-24T09:42:47;100296.72;;;24.37;52.13
71384;BME280;67558;52.166;5.004;2023-07-24T09:45:13;100294.78;;;24.41;51.74
71384;BME280;67558;52.166;5.004;2023-07-24T09:47:39;100282.72;;;24.42;51.91
71384;BME280;67558;52.166;5.004;2023-07-24T09:50:05;100292.88;;;24.42;51.95
71384;BME280;67558;52.166;5.004;2023-07-24T09:52:31;100286.63;;;24.45;51.95
71384;BME280;67558;52.166;5.004;2023-07-24T09:55:13;100278.94;;;24.50;51.75
71384;BME280;67558;52.166;5.004;2023-07-24T09:57:41;100277.88;;;24.59;52.16
71384;BME280;67558;52.166;5.004;2023-07-24T10:00:07;100286.88;;;24.63;52.11
71384;BME280;67558;52.166;5.004;2023-07-24T10:02:33;100293.25;;;24.74;52.21
71384;BME280;67558;52.166;5.004;2023-07-24T10:04:59;100294.91;;;24.82;52.08
71384;BME280;67558;52.166;5.004;2023-07-24T10:07:25;100284.78;;;24.86;51.83
71384;BME280;67558;52.166;5.004;2023-07-24T10:09:52;100299.41;;;25.01;51.75
71384;BME280;67558;52.166;5.004;2023-07-24T10:12:20;100288.91;;;25.07;51.64
71384;BME280;67558;52.166;5.004;2023-07-24T10:14:47;100285.81;;;25.12;50.99
71384;BME280;67558;52.166;5.004;2023-07-24T10:17:13;100290.56;;;25.19;51.16
71384;BME280;67558;52.166;5.004;2023-07-24T10:19:42;100280.44;;;25.19;51.07
71384;BME280;67558;52.166;5.004;2023-07-24T10:22:09;100293.41;;;25.26;50.79
71384;BME280;67558;52.166;5.004;2023-07-24T10:24:42;100275.41;;;25.25;50.74
71384;BME280;67558;52.166;5.004;2023-07-24T10:27:07;100275.81;;;25.23;50.64
71384;BME280;67558;52.166;5.004;2023-07-24T10:29:36;100273.38;;;25.18;50.54
71384;BME280;67558;52.166;5.004;2023-07-24T10:32:02;100282.06;;;25.27;50.31
71384;BME280;67558;52.166;5.004;2023-07-24T10:34:39;100270.38;;;25.30;50.61
71384;BME280;67558;52.166;5.004;2023-07-24T10:37:08;100265.31;;;25.32;50.65
71384;BME280;67558;52.166;5.004;2023-07-24T10:39:39;100261.47;;;25.41;50.66
71384;BME280;67558;52.166;5.004;2023-07-24T10:42:07;100269.31;;;25.46;50.67
71384;BME280;67558;52.166;5.004;2023-07-24T10:44:32;100263.88;;;25.53;50.49
71384;BME280;67558;52.166;5.004;2023-07-24T10:46:58;100256.50;;;25.57;50.06
71384;BME280;67558;52.166;5.004;2023-07-24T10:49:23;100265.50;;;25.58;49.92
71384;BME280;67558;52.166;5.004;2023-07-24T10:51:57;100265.09;;;25.56;49.61
71384;BME280;67558;52.166;5.004;2023-07-24T10:54:23;100268.19;;;25.50;49.66
71384;BME280;67558;52.166;5.004;2023-07-24T10:56:48;100263.06;;;25.45;49.75
71384;BME280;67558;52.166;5.004;2023-07-24T10:59:13;100280.66;;;25.44;50.08
71384;BME280;67558;52.166;5.004;2023-07-24T11:01:40;100265.00;;;25.41;49.65
71384;BME280;67558;52.166;5.004;2023-07-24T11:04:06;100269.69;;;25.41;49.83
71384;BME280;67558;52.166;5.004;2023-07-24T11:06:32;100271.59;;;25.37;50.06
71384;BME280;67558;52.166;5.004;2023-07-24T11:08:59;100269.59;;;25.33;50.15
71384;BME280;67558;52.166;5.004;2023-07-24T11:11:33;100272.34;;;25.33;50.22
71384;BME280;67558;52.166;5.004;2023-07-24T11:13:59;100283.28;;;25.33;50.13
71384;BME280;67558;52.166;5.004;2023-07-24T11:16:25;100280.50;;;25.26;50.25
71384;BME280;67558;52.166;5.004;2023-07-24T11:18:50;100283.69;;;25.32;50.02
71384;BME280;67558;52.166;5.004;2023-07-24T11:21:17;100282.53;;;25.33;49.89
71384;BME280;67558;52.166;5.004;2023-07-24T11:23:53;100289.19;;;25.36;50.00
71384;BME280;67558;52.166;5.004;2023-07-24T11:26:24;100282.97;;;25.39;50.03
71384;BME280;67558;52.166;5.004;2023-07-24T11:28:50;100283.78;;;25.43;49.80
71384;BME280;67558;52.166;5.004;2023-07-24T11:31:16;100279.47;;;25.42;49.87
71384;BME280;67558;52.166;5.004;2023-07-24T11:33:46;100286.94;;;25.45;49.70
71384;BME280;67558;52.166;5.004;2023-07-24T11:36:11;100282.19;;;25.42;49.60
71384;BME280;67558;52.166;5.004;2023-07-24T11:38:37;100272.06;;;25.46;49.78
71384;BME280;67558;52.166;5.004;2023-07-24T11:41:04;100279.13;;;25.47;49.64
71384;BME280;67558;52.166;5.004;2023-07-24T11:43:29;100273.66;;;25.47;49.49
71384;BME280;67558;52.166;5.004;2023-07-24T11:45:54;100283.84;;;25.50;49.55
71384;BME280;67558;52.166;5.004;2023-07-24T11:48:22;100277.56;;;25.49;49.32
71384;BME280;67558;52.166;5.004;2023-07-24T11:50:53;100292.03;;;25.50;49.12
71384;BME280;67558;52.166;5.004;2023-07-24T11:53:28;100285.34;;;25.44;49.62
71384;BME280;67558;52.166;5.004;2023-07-24T11:56:00;100286.13;;;25.41;49.98
71384;BME280;67558;52.166;5.004;2023-07-24T11:58:28;100291.59;;;25.41;49.88
71384;BME280;67558;52.166;5.004;2023-07-24T12:00:54;100289.22;;;25.39;50.08
71384;BME280;67558;52.166;5.004;2023-07-24T12:03:22;100295.06;;;25.38;49.92
71384;BME280;67558;52.166;5.004;2023-07-24T12:05:48;100290.34;;;25.34;49.94
71384;BME280;67558;52.166;5.004;2023-07-24T12:08:13;100284.84;;;25.31;49.79
71384;BME280;67558;52.166;5.004;2023-07-24T12:10:43;100278.56;;;25.27;49.38
71384;BME280;67558;52.166;5.004;2023-07-24T12:13:09;100278.84;;;25.18;49.99
71384;BME280;67558;52.166;5.004;2023-07-24T12:15:34;100278.78;;;25.11;50.21
71384;BME280;67558;52.166;5.004;2023-07-24T12:18:04;100276.38;;;25.06;50.25
71384;BME280;67558;52.166;5.004;2023-07-24T12:20:29;100264.59;;;24.98;50.46
71384;BME280;67558;52.166;5.004;2023-07-24T12:22:55;100280.22;;;24.98;50.60
71384;BME280;67558;52.166;5.004;2023-07-24T12:25:21;100271.56;;;24.92;50.62
71384;BME280;67558;52.166;5.004;2023-07-24T12:27:47;100289.50;;;24.89;50.61
71384;BME280;67558;52.166;5.004;2023-07-24T12:30:13;100284.78;;;24.86;50.58
71384;BME280;67558;52.166;5.004;2023-07-24T12:32:38;100298.81;;;24.81;50.74
71384;BME280;67558;52.166;5.004;2023-07-24T12:35:04;100294.09;;;24.78;50.62
71384;BME280;67558;52.166;5.004;2023-07-24T12:37:30;100294.03;;;24.75;50.76
71384;BME280;67558;52.166;5.004;2023-07-24T12:39:55;100287.78;;;24.74;50.63
71384;BME280;67558;52.166;5.004;2023-07-24T12:45:42;100303.16;;;24.86;50.37
71384;BME280;67558;52.166;5.004;2023-07-24T12:48:08;100298.44;;;24.83;50.20
71384;BME280;67558;52.166;5.004;2023-07-24T12:50:33;100301.19;;;24.86;49.80
71384;BME280;67558;52.166;5.004;2023-07-24T12:52:58;100296.13;;;24.88;49.60